Mount Ayr, Iowa
Current Conditions -  °F | °C
As of 11:04 PM on Saturday 20 Dec 2014 (Local Time) from KLWD Reporting Station
Haze Haze  
Wind Chill: 29°   Ceiling: 500
Heat Index: 37°   Visibility: 5mi
Dew Point: 36°   Wind: 12mph
Humidity: 96%   Direction: 180°S
Pressure: 30.09"   Gusts: 18mph
Location:  40.71°N, 94.24°W
Report Text: KLWD 210504Z AUTO 18010G16KT 5SM BR OVC005 03/02 A3009 RMK AO2 T00280022
Loading
Personal Weather Stations






























Interactive Weather Map New forecast layout! Learn more

10-Day Weather Forecast

Advertisements
Track Severe Weather on mobile